createdAt,value
2019-03-28T00:03:30.759Z,98915.53
2019-03-28T00:08:32.475Z,98909.42
2019-03-28T00:13:34.502Z,98908.50
2019-03-28T00:18:36.217Z,98917.17
2019-03-28T00:23:39.930Z,98917.17
2019-03-28T00:28:41.737Z,98904.73
2019-03-28T00:33:44.371Z,98904.52
2019-03-28T00:38:46.057Z,98902.69
2019-03-28T00:43:47.768Z,98906.09
2019-03-28T00:48:50.572Z,98908.61
2019-03-28T00:53:52.179Z,98900.56
2019-03-28T00:58:53.902Z,98896.14
2019-03-28T01:03:55.623Z,98897.85
2019-03-28T01:08:57.237Z,98894.78
2019-03-28T01:13:59.014Z,98896.86
2019-03-28T01:19:00.739Z,98897.70
2019-03-28T01:24:02.538Z,98895.03
2019-03-28T01:29:04.242Z,98890.67
2019-03-28T01:34:06.363Z,98892.39
2019-03-28T01:39:08.017Z,98896.71
2019-03-28T01:44:10.400Z,98888.89
2019-03-28T01:49:12.015Z,98882.63
2019-03-28T01:54:13.626Z,98877.36
2019-03-28T01:59:15.334Z,98880.91
2019-03-28T02:04:16.980Z,98876.95
2019-03-28T02:09:18.840Z,98877.20
2019-03-28T02:14:20.449Z,98869.55
2019-03-28T02:19:22.133Z,98874.45
2019-03-28T02:24:23.741Z,98871.82
2019-03-28T02:29:25.389Z,98873.39
2019-03-28T02:34:26.994Z,98868.63
2019-03-28T02:39:28.720Z,98861.77
2019-03-28T02:44:30.454Z,98860.31
2019-03-28T02:49:32.102Z,98857.67
2019-03-28T02:54:33.867Z,98857.00
2019-03-28T02:59:35.467Z,98863.03
2019-03-28T03:04:37.207Z,98870.42
2019-03-28T03:09:39.102Z,98859.86
2019-03-28T03:14:40.705Z,98861.30
2019-03-28T03:19:42.442Z,98861.93
2019-03-28T03:24:44.042Z,98863.77
2019-03-28T03:29:45.645Z,98863.69
2019-03-28T03:34:47.302Z,98866.33
2019-03-28T03:39:48.916Z,98860.06
2019-03-28T03:44:50.898Z,98868.12
2019-03-28T03:49:52.549Z,98864.03
2019-03-28T03:54:54.146Z,98861.16
2019-03-28T03:59:55.821Z,98859.34
2019-03-28T04:04:57.473Z,98851.73
2019-03-28T04:09:59.179Z,98858.58
2019-03-28T04:15:01.287Z,98853.06
2019-03-28T04:20:05.625Z,98848.34
2019-03-28T04:25:07.800Z,98840.56
2019-03-28T04:30:09.910Z,98839.91
2019-03-28T04:35:11.523Z,98843.48
2019-03-28T04:40:13.332Z,98850.58
2019-03-28T04:45:15.007Z,98850.87
2019-03-28T04:50:16.705Z,98857.57
2019-03-28T04:55:18.611Z,98855.92
2019-03-28T05:00:20.935Z,98867.98
2019-03-28T05:05:22.547Z,98871.41
2019-03-28T05:10:24.150Z,98872.87
2019-03-28T05:15:25.788Z,98870.68
2019-03-28T05:20:27.397Z,98872.65
2019-03-28T05:25:29.043Z,98876.53
2019-03-28T05:30:30.787Z,98880.10
2019-03-28T05:35:32.385Z,98873.96
2019-03-28T05:40:33.983Z,98871.23
2019-03-28T05:45:35.831Z,98872.73
2019-03-28T05:50:37.499Z,98875.15
2019-03-28T05:55:39.099Z,98866.52
2019-03-28T06:00:40.751Z,98860.20
2019-03-28T06:05:42.558Z,98861.26
2019-03-28T06:10:44.279Z,98872.05
2019-03-28T06:15:45.965Z,98876.18
2019-03-28T06:20:47.770Z,98880.31
2019-03-28T06:25:49.611Z,98878.88
2019-03-28T06:30:51.503Z,98873.31
2019-03-28T06:35:53.108Z,98878.65
2019-03-28T06:40:54.720Z,98879.08
2019-03-28T06:45:56.451Z,98883.27
